Time;durP1;ratioP1;P1;durP2;ratioP2;P2;SDS_P1;SDS_P2;PMS_P1;PMS_P2;Temp;Humidity;BMP_temperature;BMP_pressure;BME280_temperature;BME280_humidity;BME280_pressure;Samples;Min_cycle;Max_cycle;Signal;HPM_P1;HPM_P2
2022/03/13 00:00:11;;;;;;;31.77;18.90;;;7.10;99.90;;;;;;5037004;28;20545;-59
2022/03/13 00:02:37;;;;;;;36.97;20.65;;;7.00;99.90;;;;;;5051942;28;20110;-59
2022/03/13 00:05:05;;;;;;;31.25;20.23;;;7.00;99.90;;;;;;5055277;28;20086;-59
2022/03/13 00:07:34;;;;;;;31.73;19.10;;;6.90;99.90;;;;;;5062199;28;20119;-59
2022/03/13 00:09:59;;;;;;;34.20;20.42;;;6.80;99.90;;;;;;5066600;28;20095;-59
2022/03/13 00:12:30;;;;;;;33.92;20.38;;;6.70;99.90;;;;;;5066109;28;20041;-59
2022/03/13 00:14:59;;;;;;;31.48;20.08;;;6.70;99.90;;;;;;5068265;28;20040;-59
2022/03/13 00:17:29;;;;;;;32.92;20.80;;;6.60;99.90;;;;;;5055230;28;20033;-59
2022/03/13 00:20:02;;;;;;;32.50;20.88;;;6.50;99.90;;;;;;5065413;28;20120;-59
2022/03/13 00:22:30;;;;;;;31.58;19.98;;;6.50;99.90;;;;;;5060461;28;20517;-59
2022/03/13 00:24:56;;;;;;;36.17;21.52;;;6.50;99.90;;;;;;5060381;28;20041;-59
2022/03/13 00:27:22;;;;;;;37.53;21.80;;;6.50;99.90;;;;;;5068882;28;20047;-59
2022/03/13 00:29:48;;;;;;;32.50;20.67;;;6.50;99.90;;;;;;5062626;28;20036;-59
2022/03/13 00:32:15;;;;;;;32.90;20.90;;;6.50;99.90;;;;;;5068698;28;20032;-59
2022/03/13 00:34:41;;;;;;;32.45;20.38;;;6.50;99.90;;;;;;5058389;28;20047;-59
2022/03/13 00:37:07;;;;;;;34.72;21.38;;;6.60;99.90;;;;;;5045329;28;20040;-59
2022/03/13 00:39:34;;;;;;;37.47;20.27;;;6.60;99.90;;;;;;5069677;28;20502;-59
2022/03/13 00:42:00;;;;;;;32.40;20.60;;;6.70;99.90;;;;;;5061935;28;20119;-59
2022/03/13 00:44:26;;;;;;;43.03;21.77;;;6.70;99.90;;;;;;5070428;28;20066;-59
2022/03/13 00:46:51;;;;;;;33.58;20.83;;;6.70;99.90;;;;;;5063098;28;20061;-59
2022/03/13 00:49:17;;;;;;;34.47;21.20;;;6.70;99.90;;;;;;5061370;28;20401;-59
2022/03/13 00:51:44;;;;;;;34.72;20.90;;;6.70;99.90;;;;;;5062311;28;20044;-59
2022/03/13 00:54:09;;;;;;;36.03;20.95;;;6.70;99.90;;;;;;5067907;28;20448;-59
2022/03/13 00:56:35;;;;;;;33.17;20.67;;;6.80;99.90;;;;;;5058104;28;20037;-59
2022/03/13 00:59:01;;;;;;;33.90;21.98;;;6.70;99.90;;;;;;5059422;28;20541;-59
2022/03/13 01:01:26;;;;;;;35.05;21.85;;;6.80;99.90;;;;;;5051014;28;20036;-59
2022/03/13 01:03:53;;;;;;;34.78;20.63;;;6.90;99.90;;;;;;5056371;28;20050;-59
2022/03/13 01:06:20;;;;;;;37.22;20.85;;;6.90;99.90;;;;;;5061823;28;20398;-59
2022/03/13 01:08:46;;;;;;;32.03;20.75;;;7.00;99.90;;;;;;5062061;28;20041;-59
2022/03/13 01:11:14;;;;;;;34.88;20.23;;;7.00;99.90;;;;;;5068353;28;20032;-59
2022/03/13 01:13:40;;;;;;;31.90;20.15;;;7.10;99.90;;;;;;5069375;28;20033;-59
2022/03/13 01:16:26;;;;;;;33.00;19.05;;;7.30;99.90;;;;;;5062963;28;20055;-59
2022/03/13 01:18:58;;;;;;;27.02;17.20;;;7.40;99.90;;;;;;5060074;28;20033;-59
2022/03/13 01:21:25;;;;;;;32.38;17.40;;;7.50;99.90;;;;;;5061738;28;20486;-59
2022/03/13 01:24:13;;;;;;;30.00;18.15;;;7.70;99.90;;;;;;5061319;28;20036;-59
2022/03/13 01:26:40;;;;;;;28.35;18.20;;;7.80;99.90;;;;;;5054888;28;20119;-59
2022/03/13 01:29:11;;;;;;;28.42;17.70;;;7.90;99.90;;;;;;5067240;28;20028;-60
2022/03/13 01:31:39;;;;;;;28.38;18.33;;;7.90;99.90;;;;;;5061754;28;20104;-59
2022/03/13 01:34:09;;;;;;;28.10;17.63;;;7.90;99.90;;;;;;5069674;28;20037;-59
2022/03/13 01:36:35;;;;;;;28.45;17.50;;;8.00;99.90;;;;;;5068625;28;20182;-59
2022/03/13 01:39:01;;;;;;;30.20;17.65;;;8.10;99.90;;;;;;5056591;28;20565;-59
2022/03/13 01:41:28;;;;;;;26.48;16.60;;;8.10;99.90;;;;;;5061429;28;20502;-60
2022/03/13 01:43:55;;;;;;;30.20;17.42;;;8.20;99.90;;;;;;5092973;22;20050;-61
2022/03/13 01:46:21;;;;;;;27.58;17.85;;;8.20;99.90;;;;;;5052891;28;20044;-61
2022/03/13 01:48:53;;;;;;;28.90;17.52;;;8.20;99.90;;;;;;5062201;28;20040;-60
2022/03/13 01:51:19;;;;;;;26.17;17.55;;;8.20;99.90;;;;;;5064606;28;20045;-60
2022/03/13 01:53:45;;;;;;;28.33;17.63;;;8.20;99.90;;;;;;5050162;28;20040;-60
2022/03/13 02:00:00;;;;;;;30.52;18.92;;;8.20;99.90;;;;;;5114265;22;20056;-61
2022/03/13 02:05:01;;;;;;;33.80;19.10;;;8.10;99.90;;;;;;5770385;22;20063;-61
2022/03/13 02:07:29;;;;;;;29.52;19.02;;;8.10;99.90;;;;;;5051368;28;20037;-60
2022/03/13 02:16:11;;;;;;;33.10;20.38;;;7.60;99.90;;;;;;5367873;22;20809;-61
2022/03/13 02:18:39;;;;;;;43.92;21.35;;;7.50;99.90;;;;;;5054169;28;20349;-61
2022/03/13 02:33:19;;;;;;;37.22;21.98;;;7.00;99.90;;;;;;5023669;28;20416;-61
2022/03/13 02:39:37;;;;;;;33.47;20.88;;;6.80;99.90;;;;;;5044834;22;20106;-61
2022/03/13 02:42:44;;;;;;;35.78;21.02;;;6.80;99.90;;;;;;5047725;28;20127;-61
2022/03/13 02:49:21;;;;;;;34.50;20.95;;;6.60;99.90;;;;;;5219634;22;20199;-61
2022/03/13 02:51:52;;;;;;;35.83;22.08;;;6.60;99.90;;;;;;5062692;28;20040;-61
2022/03/13 02:57:14;;;;;;;37.33;21.60;;;6.60;99.90;;;;;;5091989;22;20044;-60
2022/03/13 03:03:23;;;;;;;32.77;19.90;;;6.40;99.90;;;;;;5209708;22;20597;-60
2022/03/13 03:12:12;;;;;;;36.58;20.55;;;6.10;99.90;;;;;;5039394;28;20270;-60
2022/03/13 03:18:19;;;;;;;34.72;20.65;;;6.10;99.90;;;;;;5386641;22;20076;-60
2022/03/13 03:20:45;;;;;;;35.35;20.58;;;6.00;99.90;;;;;;5022340;28;20414;-60
2022/03/13 03:23:11;;;;;;;40.13;21.95;;;6.00;99.90;;;;;;5160846;22;20036;-60
2022/03/13 03:28:58;;;;;;;36.95;20.38;;;6.00;99.90;;;;;;5200829;22;20550;-60
2022/03/13 03:31:24;;;;;;;36.30;21.50;;;6.00;99.90;;;;;;5050187;28;20129;-61
2022/03/13 03:33:49;;;;;;;36.55;21.17;;;6.00;99.90;;;;;;5028799;28;20073;-60
2022/03/13 03:39:57;;;;;;;34.38;21.38;;;5.90;99.90;;;;;;5531817;22;20053;-60
2022/03/13 03:42:22;;;;;;;34.75;20.98;;;5.80;99.90;;;;;;5030217;28;20221;-61
2022/03/13 03:44:48;;;;;;;36.80;22.27;;;5.80;99.90;;;;;;5035745;28;20040;-61
2022/03/13 03:52:40;;;;;;;34.17;21.70;;;5.70;99.90;;;;;;5065886;22;20052;-60
2022/03/13 04:04:23;;;;;;;35.83;21.65;;;5.40;99.90;;;;;;5057998;22;20061;-61
2022/03/13 04:06:49;;;;;;;34.17;21.42;;;5.30;99.90;;;;;;5017991;28;20038;-61
2022/03/13 04:09:15;;;;;;;37.38;22.27;;;5.40;99.90;;;;;;5021303;28;20025;-61
2022/03/13 04:11:41;;;;;;;36.78;21.48;;;5.40;99.90;;;;;;5027577;28;20064;-61
2022/03/13 04:14:08;;;;;;;38.22;22.95;;;5.40;99.90;;;;;;5028368;28;20037;-61
2022/03/13 04:19:58;;;;;;;31.73;19.70;;;5.40;99.90;;;;;;6101401;22;20119;-61
2022/03/13 04:26:05;;;;;;;36.17;21.55;;;5.40;99.90;;;;;;5259944;22;20315;-60
2022/03/13 04:28:32;;;;;;;36.28;21.25;;;5.40;99.90;;;;;;5028713;28;20041;-60
2022/03/13 04:31:00;;;;;;;32.63;20.38;;;5.30;99.90;;;;;;5043426;28;20029;-60
2022/03/13 04:33:29;;;;;;;34.00;19.73;;;5.10;99.90;;;;;;5055649;28;20100;-60
2022/03/13 04:35:57;;;;;;;30.02;19.55;;;4.80;99.90;;;;;;5056098;28;20064;-62
2022/03/13 04:38:23;;;;;;;38.47;22.63;;;4.60;99.90;;;;;;5047045;28;20087;-60
2022/03/13 04:44:23;;;;;;;37.92;22.15;;;4.90;99.90;;;;;;5035036;28;20040;-60
2022/03/13 04:46:48;;;;;;;36.50;21.67;;;5.00;99.90;;;;;;5192678;22;20494;-60
2022/03/13 04:52:52;;;;;;;33.63;20.30;;;5.10;99.90;;;;;;6118410;22;20057;-60
2022/03/13 04:55:18;;;;;;;36.70;20.73;;;5.00;99.90;;;;;;5070762;28;20101;-60
2022/03/13 04:57:44;;;;;;;33.13;20.08;;;5.00;99.90;;;;;;5062610;28;20029;-60
2022/03/13 05:00:10;;;;;;;36.33;21.88;;;5.00;99.90;;;;;;5088076;23;20048;-61
2022/03/13 05:02:37;;;;;;;33.42;20.60;;;5.00;99.90;;;;;;5098575;22;20118;-60
2022/03/13 05:05:03;;;;;;;36.65;20.83;;;5.00;99.90;;;;;;5037835;28;20037;-61
2022/03/13 05:07:29;;;;;;;35.55;20.75;;;5.00;99.90;;;;;;5047651;28;20041;-61
2022/03/13 05:09:54;;;;;;;36.28;21.23;;;4.90;99.90;;;;;;5050340;28;20406;-61
2022/03/13 05:12:24;;;;;;;35.47;19.80;;;4.90;99.90;;;;;;5092613;22;20069;-60
2022/03/13 05:15:38;;;;;;;35.22;21.35;;;4.90;99.90;;;;;;5057926;28;20025;-60
2022/03/13 05:18:04;;;;;;;41.47;20.58;;;4.80;99.90;;;;;;5044777;28;20487;-61
2022/03/13 05:24:15;;;;;;;39.33;20.65;;;4.80;99.90;;;;;;5287983;22;20457;-60
2022/03/13 05:26:40;;;;;;;39.67;20.83;;;4.80;99.90;;;;;;5052587;28;20037;-60
2022/03/13 05:32:30;;;;;;;36.05;20.38;;;4.90;99.90;;;;;;5306026;22;20082;-61
2022/03/13 05:34:57;;;;;;;36.85;20.08;;;4.90;99.90;;;;;;5237984;22;20352;-61
2022/03/13 05:37:24;;;;;;;34.83;20.88;;;4.90;99.90;;;;;;5040496;28;20048;-60
2022/03/13 05:43:32;;;;;;;32.72;19.85;;;4.90;99.90;;;;;;5075055;28;20132;-61
2022/03/13 05:46:04;;;;;;;30.77;19.02;;;4.90;99.90;;;;;;5080442;28;20028;-60
2022/03/13 05:48:30;;;;;;;32.58;19.67;;;4.90;99.90;;;;;;5030239;23;21169;-59
2022/03/13 05:50:56;;;;;;;34.85;20.38;;;4.90;99.90;;;;;;5046908;28;20337;-59
2022/03/13 05:53:22;;;;;;;33.50;20.25;;;4.90;99.90;;;;;;5039619;28;20052;-59
2022/03/13 05:55:47;;;;;;;32.75;20.48;;;4.90;99.90;;;;;;5044579;28;20152;-60
2022/03/13 05:58:13;;;;;;;34.35;20.70;;;4.90;99.90;;;;;;5032795;28;20495;-59
2022/03/13 06:00:39;;;;;;;35.72;20.08;;;4.90;99.90;;;;;;5022021;28;20080;-59
2022/03/13 06:03:06;;;;;;;35.67;20.42;;;4.90;99.90;;;;;;5013159;28;20040;-59
2022/03/13 06:05:33;;;;;;;34.60;19.88;;;4.90;99.90;;;;;;5025677;28;20675;-59
2022/03/13 06:07:59;;;;;;;38.55;18.67;;;4.90;99.90;;;;;;5018068;28;20056;-60
2022/03/13 06:10:25;;;;;;;33.00;19.27;;;4.90;99.90;;;;;;5025296;28;20825;-60
2022/03/13 06:12:51;;;;;;;31.77;18.75;;;4.90;99.90;;;;;;5026023;28;20123;-59
2022/03/13 06:15:18;;;;;;;33.58;18.77;;;4.90;99.90;;;;;;5017419;28;20037;-59
2022/03/13 06:17:46;;;;;;;31.10;18.77;;;4.90;99.90;;;;;;5026389;28;20446;-59
2022/03/13 06:20:15;;;;;;;30.45;19.00;;;4.90;99.90;;;;;;5024808;28;20029;-59
2022/03/13 06:22:42;;;;;;;31.70;19.27;;;4.90;99.90;;;;;;5025486;28;20116;-59
2022/03/13 06:25:10;;;;;;;33.55;19.75;;;4.90;99.90;;;;;;5019032;28;20045;-59
2022/03/13 06:27:36;;;;;;;30.13;18.95;;;4.90;99.90;;;;;;5024421;28;20080;-59
2022/03/13 06:30:11;;;;;;;33.15;18.75;;;5.00;99.90;;;;;;5015029;28;20037;-60
2022/03/13 06:32:37;;;;;;;29.15;18.25;;;5.00;99.90;;;;;;5022735;28;20156;-59
2022/03/13 06:35:03;;;;;;;32.80;18.50;;;5.10;99.90;;;;;;5024639;28;20057;-59
2022/03/13 06:37:29;;;;;;;32.95;18.25;;;5.10;99.90;;;;;;5025682;28;20041;-59
2022/03/13 06:39:54;;;;;;;31.75;18.13;;;5.20;99.90;;;;;;5017296;28;20912;-60
2022/03/13 06:42:20;;;;;;;31.35;18.50;;;5.20;99.90;;;;;;5025521;28;20128;-59
2022/03/13 06:44:46;;;;;;;30.45;17.80;;;5.30;99.90;;;;;;5024107;28;20148;-59
2022/03/13 06:47:11;;;;;;;29.70;18.10;;;5.40;99.90;;;;;;5020596;28;20125;-59
2022/03/13 06:49:37;;;;;;;31.67;16.23;;;5.40;99.90;;;;;;5022352;28;20043;-59
2022/03/13 06:52:03;;;;;;;28.75;17.67;;;5.50;99.90;;;;;;5025536;28;20492;-59
2022/03/13 06:54:29;;;;;;;33.88;17.23;;;5.50;99.90;;;;;;5023877;28;20468;-59
2022/03/13 06:56:54;;;;;;;29.70;17.88;;;5.60;99.90;;;;;;5022475;28;20041;-59
2022/03/13 06:59:20;;;;;;;32.60;18.27;;;5.70;99.90;;;;;;5006171;28;20072;-59
2022/03/13 07:01:45;;;;;;;32.35;17.85;;;5.80;99.90;;;;;;5021213;28;20045;-59
2022/03/13 07:04:12;;;;;;;33.88;17.10;;;5.90;99.90;;;;;;5020029;28;20034;-59
2022/03/13 07:06:38;;;;;;;29.58;17.35;;;6.00;99.90;;;;;;5022588;28;20073;-59
2022/03/13 07:09:04;;;;;;;34.30;18.38;;;6.10;99.90;;;;;;5024030;28;20033;-59
2022/03/13 07:11:32;;;;;;;32.35;16.95;;;6.20;99.90;;;;;;5024782;28;20138;-59
2022/03/13 07:13:59;;;;;;;31.33;16.15;;;6.30;99.90;;;;;;5017107;28;20041;-59
2022/03/13 07:16:25;;;;;;;27.10;16.20;;;6.30;99.90;;;;;;5022502;28;20046;-59
2022/03/13 07:18:51;;;;;;;28.55;16.80;;;6.40;99.90;;;;;;5022709;28;20060;-59
2022/03/13 07:21:16;;;;;;;27.35;16.73;;;6.50;99.90;;;;;;5015716;28;20112;-59
2022/03/13 07:23:42;;;;;;;28.65;16.50;;;6.50;99.90;;;;;;5024305;28;20605;-59
2022/03/13 07:26:07;;;;;;;28.27;15.80;;;6.60;99.90;;;;;;5016788;28;20124;-59
2022/03/13 07:28:33;;;;;;;28.90;17.10;;;6.70;99.90;;;;;;5024034;28;20120;-59
2022/03/13 07:30:59;;;;;;;29.80;16.73;;;6.80;99.90;;;;;;5023967;28;20068;-59
2022/03/13 07:33:24;;;;;;;27.23;16.50;;;6.90;99.90;;;;;;5020266;28;20045;-59
2022/03/13 07:35:50;;;;;;;28.27;16.95;;;7.00;99.90;;;;;;5025213;28;20076;-59
2022/03/13 07:38:16;;;;;;;28.38;16.38;;;7.20;99.90;;;;;;5017732;28;20137;-60
2022/03/13 07:40:43;;;;;;;26.05;16.02;;;7.20;99.90;;;;;;5027905;28;20041;-59
2022/03/13 07:43:10;;;;;;;26.00;16.52;;;7.30;99.90;;;;;;5026364;28;20045;-59
2022/03/13 07:45:35;;;;;;;30.13;16.55;;;7.40;99.90;;;;;;5028046;28;20076;-59
2022/03/13 07:48:01;;;;;;;28.30;17.27;;;7.40;99.90;;;;;;5019938;28;20041;-59
2022/03/13 07:50:28;;;;;;;29.90;16.58;;;7.50;99.90;;;;;;5026631;28;20038;-59
2022/03/13 07:52:53;;;;;;;28.25;16.65;;;7.60;99.90;;;;;;5027359;28;20081;-60
2022/03/13 07:55:21;;;;;;;26.50;16.23;;;7.70;99.90;;;;;;5019350;28;20079;-59
2022/03/13 07:57:47;;;;;;;28.73;16.63;;;7.80;99.90;;;;;;5010399;28;20453;-59
2022/03/13 08:00:16;;;;;;;26.60;16.63;;;7.90;99.90;;;;;;5023885;28;20038;-59
2022/03/13 08:02:52;;;;;;;26.85;16.80;;;7.90;99.90;;;;;;5015373;28;20093;-59
2022/03/13 08:05:18;;;;;;;28.58;16.23;;;7.90;99.90;;;;;;5027995;28;20084;-59
2022/03/13 08:07:45;;;;;;;28.33;16.63;;;7.90;99.90;;;;;;5025938;28;20029;-59
2022/03/13 08:10:13;;;;;;;26.65;16.40;;;7.90;99.90;;;;;;5022672;28;20080;-59
2022/03/13 08:12:39;;;;;;;28.55;16.40;;;8.00;99.90;;;;;;5024846;28;20042;-59
2022/03/13 08:15:07;;;;;;;27.23;15.90;;;8.00;99.90;;;;;;5027695;28;20045;-59
2022/03/13 08:17:34;;;;;;;24.38;15.65;;;8.00;99.90;;;;;;5024541;28;20033;-60
2022/03/13 08:19:59;;;;;;;24.23;15.90;;;8.00;99.90;;;;;;5015441;28;20041;-60
2022/03/13 08:22:25;;;;;;;26.40;15.02;;;8.00;99.90;;;;;;5024252;28;20100;-60
2022/03/13 08:24:51;;;;;;;27.48;15.93;;;8.10;99.90;;;;;;5022954;28;20037;-60
2022/03/13 08:27:17;;;;;;;25.27;16.10;;;8.00;99.90;;;;;;5019129;28;20044;-60
2022/03/13 08:29:42;;;;;;;24.90;15.82;;;8.00;99.90;;;;;;5026038;28;20041;-60
2022/03/13 08:32:08;;;;;;;25.38;15.63;;;8.00;99.90;;;;;;5027021;28;20064;-61
2022/03/13 08:34:37;;;;;;;26.48;15.52;;;8.00;99.90;;;;;;5027618;28;20050;-60
2022/03/13 08:37:04;;;;;;;27.17;16.00;;;8.10;99.90;;;;;;5018111;28;20041;-60
2022/03/13 08:39:30;;;;;;;25.85;15.63;;;8.20;99.90;;;;;;5030621;28;20701;-60
2022/03/13 08:41:55;;;;;;;24.75;15.57;;;8.30;99.90;;;;;;5027397;28;20152;-59
2022/03/13 08:44:21;;;;;;;24.35;15.82;;;8.40;99.90;;;;;;5030263;28;20051;-66
2022/03/13 08:46:47;;;;;;;28.00;16.73;;;8.50;99.90;;;;;;5021306;28;20124;-60
2022/03/13 08:49:15;;;;;;;24.77;14.88;;;8.60;99.90;;;;;;5029442;28;20038;-60
2022/03/13 08:51:41;;;;;;;22.77;15.05;;;8.70;99.90;;;;;;5029154;28;20048;-60
2022/03/13 08:54:07;;;;;;;23.30;15.27;;;8.80;99.90;;;;;;5026359;28;20030;-60
2022/03/13 08:56:33;;;;;;;25.95;15.07;;;8.90;99.90;;;;;;5019148;28;20612;-60
2022/03/13 08:58:59;;;;;;;26.88;15.43;;;9.00;99.90;;;;;;5030069;28;20478;-60
2022/03/13 09:01:25;;;;;;;26.27;15.98;;;9.10;99.90;;;;;;5022608;28;20120;-60
2022/03/13 09:03:51;;;;;;;25.75;14.55;;;9.20;99.90;;;;;;5029162;28;20241;-60
2022/03/13 09:06:17;;;;;;;24.30;15.00;;;9.30;99.90;;;;;;5030531;28;20050;-60
2022/03/13 09:08:42;;;;;;;23.40;14.40;;;9.40;99.90;;;;;;5029024;28;20033;-60
2022/03/13 09:11:09;;;;;;;23.75;15.07;;;9.40;99.90;;;;;;5022462;28;20104;-60
2022/03/13 09:13:36;;;;;;;25.38;15.02;;;9.50;99.90;;;;;;5029401;28;20045;-60
2022/03/13 09:16:02;;;;;;;23.98;14.65;;;9.50;99.90;;;;;;5026233;28;20083;-60
2022/03/13 09:18:30;;;;;;;23.88;14.63;;;9.50;99.90;;;;;;5021830;28;20067;-60
2022/03/13 09:20:56;;;;;;;24.35;15.45;;;9.60;99.90;;;;;;5028151;28;20422;-60
2022/03/13 09:23:22;;;;;;;23.90;14.98;;;9.70;99.90;;;;;;5029840;28;20124;-60
2022/03/13 09:25:48;;;;;;;25.00;15.32;;;9.80;99.90;;;;;;5021937;28;20122;-60
2022/03/13 09:28:13;;;;;;;23.65;15.00;;;9.90;99.90;;;;;;5028938;28;20041;-60
2022/03/13 09:30:39;;;;;;;24.50;14.70;;;10.10;99.90;;;;;;5027523;28;20045;-60
2022/03/13 09:33:05;;;;;;;26.67;15.82;;;10.20;99.80;;;;;;5029442;28;20034;-60
2022/03/13 09:35:31;;;;;;;26.88;14.80;;;10.30;99.90;;;;;;5021923;28;20041;-60
2022/03/13 09:37:56;;;;;;;25.48;15.23;;;10.40;99.30;;;;;;5029068;28;20063;-60
2022/03/13 09:40:22;;;;;;;24.63;14.82;;;10.40;99.90;;;;;;5027404;28;20029;-60
2022/03/13 09:42:48;;;;;;;22.90;14.40;;;10.50;99.10;;;;;;5021261;28;20034;-60
2022/03/13 09:45:14;;;;;;;24.13;15.13;;;10.60;99.50;;;;;;5029969;28;20191;-60
2022/03/13 09:47:40;;;;;;;23.27;14.50;;;10.70;99.00;;;;;;5025676;28;20560;-60
2022/03/13 09:50:08;;;;;;;21.25;14.15;;;10.80;98.50;;;;;;5025381;28;20125;-60
2022/03/13 09:52:36;;;;;;;24.67;15.18;;;10.90;98.60;;;;;;5026070;28;20039;-60
2022/03/13 09:55:02;;;;;;;24.92;14.95;;;11.00;98.30;;;;;;5029635;28;20507;-60
2022/03/13 09:57:28;;;;;;;23.85;14.75;;;11.10;96.90;;;;;;5026434;28;20075;-60
2022/03/13 09:59:54;;;;;;;22.02;13.93;;;11.10;97.10;;;;;;5026853;28;20043;-60
2022/03/13 10:02:19;;;;;;;24.95;13.77;;;11.10;97.20;;;;;;5023832;28;20048;-60
2022/03/13 10:04:45;;;;;;;23.02;14.32;;;11.10;97.40;;;;;;5028025;28;20569;-60
2022/03/13 10:07:12;;;;;;;21.40;14.05;;;11.20;97.30;;;;;;5024535;28;20038;-60
2022/03/13 10:09:40;;;;;;;24.48;14.63;;;11.30;97.30;;;;;;5026323;28;20037;-61
2022/03/13 10:12:10;;;;;;;23.33;14.00;;;11.40;95.80;;;;;;5029448;28;20152;-61
2022/03/13 10:14:39;;;;;;;26.33;14.23;;;11.40;96.00;;;;;;5027893;28;20690;-60
2022/03/13 10:17:14;;;;;;;23.75;14.18;;;11.60;96.90;;;;;;5024912;28;20606;-61
2022/03/13 10:19:40;;;;;;;23.42;14.52;;;11.60;95.80;;;;;;5025395;28;20044;-60
2022/03/13 10:22:08;;;;;;;24.45;14.80;;;11.60;95.40;;;;;;5012669;28;20045;-61
2022/03/13 10:24:44;;;;;;;23.60;14.57;;;11.60;94.50;;;;;;5020980;28;20074;-60
2022/03/13 10:27:11;;;;;;;21.52;14.23;;;11.60;94.10;;;;;;5009329;28;20038;-61
2022/03/13 10:29:37;;;;;;;22.13;14.05;;;11.70;96.10;;;;;;5016148;28;20052;-61
2022/03/13 10:32:05;;;;;;;23.75;15.40;;;11.70;95.30;;;;;;5028907;28;20029;-61
2022/03/13 10:34:31;;;;;;;25.77;15.25;;;11.80;96.40;;;;;;5020618;28;20037;-61
2022/03/13 10:36:57;;;;;;;24.15;15.50;;;11.70;96.90;;;;;;5027451;28;20104;-61
2022/03/13 10:39:23;;;;;;;29.85;16.77;;;11.70;96.30;;;;;;5025637;28;20120;-61
2022/03/13 10:41:59;;;;;;;27.90;15.65;;;11.70;96.80;;;;;;5020329;28;20041;-61
2022/03/13 10:44:25;;;;;;;23.95;15.48;;;11.70;95.30;;;;;;5028745;28;20042;-61
2022/03/13 10:46:59;;;;;;;23.65;15.25;;;11.70;97.10;;;;;;5027066;28;20123;-61
2022/03/13 10:49:40;;;;;;;25.15;15.10;;;11.90;95.80;;;;;;5021597;28;20046;-61
2022/03/13 10:52:22;;;;;;;24.50;15.35;;;12.10;95.10;;;;;;5008485;28;20050;-61
2022/03/13 10:54:48;;;;;;;25.95;15.80;;;12.30;93.90;;;;;;5021573;28;20151;-61
2022/03/13 10:57:13;;;;;;;25.17;15.07;;;12.50;94.90;;;;;;5020006;28;20543;-61
2022/03/13 10:59:43;;;;;;;23.77;15.40;;;12.70;95.60;;;;;;5011876;28;20045;-65
2022/03/13 11:02:21;;;;;;;26.20;16.02;;;12.80;94.20;;;;;;5007870;28;20095;-62
2022/03/13 11:04:55;;;;;;;24.27;15.20;;;12.90;94.50;;;;;;5027023;28;20053;-61
2022/03/13 11:07:22;;;;;;;25.30;15.20;;;13.00;93.40;;;;;;5020188;28;20094;-61
2022/03/13 11:09:48;;;;;;;23.75;15.75;;;13.10;94.70;;;;;;5027543;28;20037;-61
2022/03/13 11:12:20;;;;;;;23.30;14.88;;;13.20;94.50;;;;;;5028064;28;20555;-62
2022/03/13 11:14:48;;;;;;;;;;;13.20;93.30;;;;;;5020524;28;20188;-61
2022/03/13 11:17:17;;;;;;;23.27;15.18;;;13.30;90.20;;;;;;5028178;28;20008;-62
2022/03/13 11:19:45;;;;;;;25.63;14.48;;;13.40;94.50;;;;;;5026308;28;20048;-61
2022/03/13 11:22:12;;;;;;;25.42;15.85;;;13.50;95.20;;;;;;5023406;28;20029;-62
2022/03/13 11:24:39;;;;;;;24.63;15.40;;;13.60;92.30;;;;;;5024864;28;20052;-61
2022/03/13 11:27:08;;;;;;;22.85;14.73;;;13.60;92.00;;;;;;5026655;28;20041;-61
2022/03/13 11:29:47;;;;;;;24.42;15.50;;;13.70;94.20;;;;;;5027819;28;20120;-61
2022/03/13 11:32:45;;;;;;;24.67;15.88;;;13.70;89.30;;;;;;5021629;28;20287;-61
2022/03/13 11:35:13;;;;;;;23.63;15.18;;;13.80;85.90;;;;;;5028048;28;20310;-61
2022/03/13 11:37:43;;;;;;;22.83;15.07;;;13.90;94.00;;;;;;5026565;28;20048;-62
2022/03/13 11:40:12;;;;;;;25.38;15.90;;;14.10;93.20;;;;;;5023303;28;20064;-62
2022/03/13 11:42:50;;;;;;;24.23;16.02;;;14.10;90.80;;;;;;5007985;28;20484;-61
2022/03/13 11:45:27;;;;;;;23.58;15.38;;;14.30;86.60;;;;;;5024387;28;20068;-61
2022/03/13 11:47:52;;;;;;;23.60;15.50;;;14.40;84.10;;;;;;5019715;28;20049;-61
2022/03/13 11:50:18;;;;;;;25.50;15.90;;;14.50;92.30;;;;;;5028000;28;20045;-61
2022/03/13 11:52:44;;;;;;;24.25;15.40;;;14.60;90.60;;;;;;5026023;28;20044;-61
2022/03/13 11:55:11;;;;;;;25.05;15.65;;;14.70;91.00;;;;;;5027691;28;20615;-61
2022/03/13 11:57:50;;;;;;;23.13;15.63;;;14.70;88.80;;;;;;5019185;28;20050;-62
2022/03/13 12:00:16;;;;;;;23.55;15.77;;;14.80;82.80;;;;;;5011258;28;20045;-61
2022/03/13 12:02:41;;;;;;;25.05;16.35;;;14.90;90.80;;;;;;5027312;28;20038;-61
2022/03/13 12:05:25;;;;;;;23.27;15.65;;;15.00;89.90;;;;;;5023090;28;20038;-62
2022/03/13 12:08:08;;;;;;;26.85;15.48;;;14.90;71.00;;;;;;5032043;28;20484;-62
2022/03/13 12:10:41;;;;;;;25.77;15.93;;;15.00;77.10;;;;;;5030492;28;20068;-62
2022/03/13 12:13:09;;;;;;;24.23;15.43;;;15.00;77.60;;;;;;5030996;28;20046;-62
2022/03/13 12:15:35;;;;;;;24.65;15.90;;;15.10;82.20;;;;;;5022950;28;20038;-61
2022/03/13 12:18:21;;;;;;;22.70;15.00;;;15.20;89.20;;;;;;5030185;28;20654;-62
2022/03/13 12:20:50;;;;;;;26.70;15.70;;;15.30;76.10;;;;;;5023034;28;20452;-62
2022/03/13 12:23:26;;;;;;;24.92;15.77;;;15.30;80.30;;;;;;5031364;28;20048;-62
2022/03/13 12:25:54;;;;;;;21.83;14.52;;;15.40;75.20;;;;;;5030111;28;20034;-62
2022/03/13 12:28:32;;;;;;;26.17;15.77;;;15.50;82.80;;;;;;5030834;28;20080;-62
2022/03/13 12:31:01;;;;;;;22.85;15.13;;;15.20;74.70;;;;;;5022086;28;20096;-62
2022/03/13 12:33:32;;;;;;;26.02;15.75;;;15.10;74.90;;;;;;5020437;28;20452;-62
2022/03/13 12:36:01;;;;;;;25.90;15.00;;;15.10;85.10;;;;;;5025434;28;20041;-61
2022/03/13 12:38:31;;;;;;;24.67;15.73;;;15.30;80.60;;;;;;5025141;28;20033;-62
2022/03/13 12:40:59;;;;;;;23.85;16.30;;;15.50;74.90;;;;;;5031049;28;20439;-62
2022/03/13 12:43:54;;;;;;;25.15;15.52;;;15.50;76.60;;;;;;5029574;28;20029;-61
2022/03/13 12:46:22;;;;;;;26.02;15.98;;;15.70;72.30;;;;;;5019403;28;20066;-62
2022/03/13 12:49:05;;;;;;;24.38;15.32;;;15.80;73.00;;;;;;5029086;28;20711;-61
2022/03/13 12:51:44;;;;;;;21.50;14.90;;;15.80;75.70;;;;;;5028796;28;20038;-62
2022/03/13 12:54:14;;;;;;;25.30;15.48;;;15.90;72.10;;;;;;5024593;28;20559;-61
2022/03/13 12:56:54;;;;;;;21.48;14.77;;;15.90;76.10;;;;;;5019363;28;20088;-61
2022/03/13 12:59:26;;;;;;;20.95;14.63;;;16.00;67.70;;;;;;5016773;28;20433;-61
2022/03/13 13:02:16;;;;;;;22.98;15.15;;;16.00;70.20;;;;;;5030503;28;20037;-61
2022/03/13 13:04:46;;;;;;;23.20;15.00;;;16.00;69.70;;;;;;5022161;28;20049;-62
2022/03/13 13:07:12;;;;;;;29.10;15.25;;;16.00;70.10;;;;;;5027869;28;20037;-62
2022/03/13 13:09:41;;;;;;;22.55;14.65;;;16.10;77.90;;;;;;5029690;28;20436;-62
2022/03/13 13:12:09;;;;;;;24.30;15.35;;;16.20;69.70;;;;;;5023083;28;20042;-61
2022/03/13 13:14:35;;;;;;;23.20;15.88;;;16.30;74.50;;;;;;5029347;28;20120;-61
2022/03/13 13:17:08;;;;;;;24.77;14.85;;;16.30;71.10;;;;;;5029082;28;20049;-62
2022/03/13 13:19:39;;;;;;;22.52;14.63;;;16.40;68.30;;;;;;5022293;28;20076;-62
2022/03/13 13:22:05;;;;;;;20.40;14.13;;;16.40;70.30;;;;;;5010636;28;20407;-62
2022/03/13 13:24:35;;;;;;;20.42;14.35;;;16.50;76.80;;;;;;5020376;28;20487;-62
2022/03/13 13:27:08;;;;;;;23.53;14.83;;;16.50;74.40;;;;;;5021584;28;20040;-62
2022/03/13 13:29:41;;;;;;;21.60;14.65;;;16.50;70.50;;;;;;5026499;28;20713;-62
2022/03/13 13:32:16;;;;;;;19.25;14.05;;;16.50;71.90;;;;;;5028974;28;20447;-61
2022/03/13 13:34:59;;;;;;;21.75;13.60;;;16.60;73.00;;;;;;5027692;28;20053;-62
2022/03/13 13:37:25;;;;;;;19.17;14.35;;;16.60;77.00;;;;;;5025223;28;20077;-62
2022/03/13 13:40:02;;;;;;;19.52;14.32;;;16.60;74.40;;;;;;5028818;28;20076;-62
2022/03/13 13:42:28;;;;;;;19.75;14.18;;;16.60;74.10;;;;;;5027727;28;20073;-61
2022/03/13 13:44:53;;;;;;;19.30;13.45;;;16.60;77.10;;;;;;5021700;28;20082;-62
2022/03/13 13:47:27;;;;;;;20.05;13.20;;;16.70;77.00;;;;;;5029854;28;20116;-62
2022/03/13 13:49:53;;;;;;;18.55;13.55;;;16.70;72.10;;;;;;5028048;28;20037;-62
2022/03/13 13:52:28;;;;;;;21.95;13.40;;;16.70;76.60;;;;;;5023698;28;20046;-62
2022/03/13 13:54:53;;;;;;;19.00;12.80;;;16.70;74.10;;;;;;5028643;28;20049;-62
2022/03/13 13:57:22;;;;;;;19.33;12.82;;;16.70;77.10;;;;;;5024038;28;20033;-62
2022/03/13 13:59:49;;;;;;;19.77;13.15;;;16.70;77.50;;;;;;5027915;28;20045;-62
2022/03/13 14:02:17;;;;;;;16.00;11.75;;;16.70;79.10;;;;;;5024184;28;20041;-62
2022/03/13 14:04:47;;;;;;;18.80;12.60;;;16.70;76.80;;;;;;5026879;28;20492;-62
2022/03/13 14:07:13;;;;;;;19.30;12.63;;;16.70;77.20;;;;;;5027660;28;20041;-62
2022/03/13 14:09:40;;;;;;;20.67;13.07;;;16.70;82.80;;;;;;5027892;28;20506;-62
2022/03/13 14:12:07;;;;;;;16.77;11.98;;;16.80;82.40;;;;;;5023548;28;20668;-61
2022/03/13 14:14:33;;;;;;;18.45;12.63;;;16.80;82.10;;;;;;5027125;28;20045;-62